sensor_id;sensor_type;location;lat;lon;timestamp;P1;durP1;ratioP1;P2;durP2;ratioP2
43650;SDS011;29247;50.944;5.382;2022-10-16T00:01:37;2.10;;;0.70;;
43650;SDS011;29247;50.944;5.382;2022-10-16T00:04:05;0.95;;;0.77;;
43650;SDS011;29247;50.944;5.382;2022-10-16T00:06:34;1.20;;;0.80;;
43650;SDS011;29247;50.944;5.382;2022-10-16T00:08:59;0.63;;;0.60;;
43650;SDS011;29247;50.944;5.382;2022-10-16T00:11:26;2.10;;;0.80;;
43650;SDS011;29247;50.944;5.382;2022-10-16T00:13:58;0.75;;;0.50;;
43650;SDS011;29247;50.944;5.382;2022-10-16T00:16:27;0.60;;;0.60;;
43650;SDS011;29247;50.944;5.382;2022-10-16T00:18:56;4.45;;;0.68;;
43650;SDS011;29247;50.944;5.382;2022-10-16T00:21:28;0.90;;;0.70;;
43650;SDS011;29247;50.944;5.382;2022-10-16T00:23:58;0.93;;;0.70;;
43650;SDS011;29247;50.944;5.382;2022-10-16T00:26:32;0.65;;;0.55;;
43650;SDS011;29247;50.944;5.382;2022-10-16T00:28:58;1.27;;;0.70;;
43650;SDS011;29247;50.944;5.382;2022-10-16T00:31:24;1.00;;;0.60;;
43650;SDS011;29247;50.944;5.382;2022-10-16T00:33:50;2.22;;;0.52;;
43650;SDS011;29247;50.944;5.382;2022-10-16T00:36:19;2.80;;;0.60;;
43650;SDS011;29247;50.944;5.382;2022-10-16T00:38:46;0.68;;;0.57;;
43650;SDS011;29247;50.944;5.382;2022-10-16T00:41:17;2.13;;;0.60;;
43650;SDS011;29247;50.944;5.382;2022-10-16T00:43:49;0.50;;;0.50;;
43650;SDS011;29247;50.944;5.382;2022-10-16T00:49:04;0.52;;;0.52;;
43650;SDS011;29247;50.944;5.382;2022-10-16T00:51:35;2.22;;;0.80;;
43650;SDS011;29247;50.944;5.382;2022-10-16T00:54:13;1.73;;;0.60;;
43650;SDS011;29247;50.944;5.382;2022-10-16T00:56:43;0.93;;;0.50;;
43650;SDS011;29247;50.944;5.382;2022-10-16T00:59:15;0.52;;;0.43;;
43650;SDS011;29247;50.944;5.382;2022-10-16T01:01:49;1.60;;;0.63;;
43650;SDS011;29247;50.944;5.382;2022-10-16T01:04:15;1.00;;;0.70;;
43650;SDS011;29247;50.944;5.382;2022-10-16T01:20:44;0.60;;;0.60;;
43650;SDS011;29247;50.944;5.382;2022-10-16T01:28:40;0.55;;;0.55;;
43650;SDS011;29247;50.944;5.382;2022-10-16T01:31:14;0.57;;;0.50;;
43650;SDS011;29247;50.944;5.382;2022-10-16T01:33:44;0.60;;;0.60;;
43650;SDS011;29247;50.944;5.382;2022-10-16T01:36:18;1.45;;;0.63;;
43650;SDS011;29247;50.944;5.382;2022-10-16T01:38:51;4.82;;;0.60;;
43650;SDS011;29247;50.944;5.382;2022-10-16T01:43:55;1.92;;;0.50;;
43650;SDS011;29247;50.944;5.382;2022-10-16T01:46:22;1.85;;;0.45;;
43650;SDS011;29247;50.944;5.382;2022-10-16T01:48:49;0.50;;;0.50;;
43650;SDS011;29247;50.944;5.382;2022-10-16T01:51:17;0.68;;;0.50;;
43650;SDS011;29247;50.944;5.382;2022-10-16T01:53:52;1.67;;;0.50;;
43650;SDS011;29247;50.944;5.382;2022-10-16T01:56:20;3.88;;;0.55;;
43650;SDS011;29247;50.944;5.382;2022-10-16T01:58:52;2.97;;;0.60;;
43650;SDS011;29247;50.944;5.382;2022-10-16T02:01:27;1.25;;;0.50;;
43650;SDS011;29247;50.944;5.382;2022-10-16T02:03:57;2.97;;;0.50;;
43650;SDS011;29247;50.944;5.382;2022-10-16T02:06:26;0.95;;;0.50;;
43650;SDS011;29247;50.944;5.382;2022-10-16T02:08:53;2.88;;;0.50;;
43650;SDS011;29247;50.944;5.382;2022-10-16T02:11:20;0.82;;;0.40;;
43650;SDS011;29247;50.944;5.382;2022-10-16T02:13:58;0.43;;;0.43;;
43650;SDS011;29247;50.944;5.382;2022-10-16T02:16:39;0.88;;;0.60;;
43650;SDS011;29247;50.944;5.382;2022-10-16T02:19:09;0.73;;;0.50;;
43650;SDS011;29247;50.944;5.382;2022-10-16T02:21:41;1.38;;;0.50;;
43650;SDS011;29247;50.944;5.382;2022-10-16T02:24:18;0.98;;;0.50;;
43650;SDS011;29247;50.944;5.382;2022-10-16T02:29:22;0.60;;;0.60;;
43650;SDS011;29247;50.944;5.382;2022-10-16T02:31:53;1.10;;;0.65;;
43650;SDS011;29247;50.944;5.382;2022-10-16T02:34:25;0.50;;;0.50;;
43650;SDS011;29247;50.944;5.382;2022-10-16T02:36:52;1.27;;;0.40;;
43650;SDS011;29247;50.944;5.382;2022-10-16T02:39:19;0.68;;;0.50;;
43650;SDS011;29247;50.944;5.382;2022-10-16T02:41:46;2.90;;;1.13;;
43650;SDS011;29247;50.944;5.382;2022-10-16T02:44:12;1.70;;;0.50;;
43650;SDS011;29247;50.944;5.382;2022-10-16T02:46:42;2.25;;;0.70;;
43650;SDS011;29247;50.944;5.382;2022-10-16T02:49:08;2.72;;;0.50;;
43650;SDS011;29247;50.944;5.382;2022-10-16T02:51:33;0.65;;;0.60;;
43650;SDS011;29247;50.944;5.382;2022-10-16T02:54:03;3.13;;;0.60;;
43650;SDS011;29247;50.944;5.382;2022-10-16T02:56:29;2.17;;;0.60;;
43650;SDS011;29247;50.944;5.382;2022-10-16T02:58:55;0.90;;;0.60;;
43650;SDS011;29247;50.944;5.382;2022-10-16T03:01:28;3.35;;;0.70;;
43650;SDS011;29247;50.944;5.382;2022-10-16T03:03:56;2.53;;;0.60;;
43650;SDS011;29247;50.944;5.382;2022-10-16T03:06:24;1.00;;;0.60;;
43650;SDS011;29247;50.944;5.382;2022-10-16T03:08:50;0.52;;;0.50;;
43650;SDS011;29247;50.944;5.382;2022-10-16T03:11:17;1.10;;;0.70;;
43650;SDS011;29247;50.944;5.382;2022-10-16T03:13:43;4.75;;;0.70;;
43650;SDS011;29247;50.944;5.382;2022-10-16T03:16:13;2.42;;;0.60;;
43650;SDS011;29247;50.944;5.382;2022-10-16T03:18:39;1.17;;;0.60;;
43650;SDS011;29247;50.944;5.382;2022-10-16T03:21:06;0.40;;;0.40;;
43650;SDS011;29247;50.944;5.382;2022-10-16T03:23:35;0.60;;;0.60;;
43650;SDS011;29247;50.944;5.382;2022-10-16T03:26:00;0.52;;;0.45;;
43650;SDS011;29247;50.944;5.382;2022-10-16T03:28:28;0.98;;;0.60;;
43650;SDS011;29247;50.944;5.382;2022-10-16T03:30:54;0.50;;;0.50;;
43650;SDS011;29247;50.944;5.382;2022-10-16T03:33:19;1.67;;;0.68;;
43650;SDS011;29247;50.944;5.382;2022-10-16T03:35:52;2.65;;;0.70;;
43650;SDS011;29247;50.944;5.382;2022-10-16T03:38:21;1.15;;;0.60;;
43650;SDS011;29247;50.944;5.382;2022-10-16T03:40:49;2.28;;;0.43;;
43650;SDS011;29247;50.944;5.382;2022-10-16T03:43:17;1.80;;;1.17;;
43650;SDS011;29247;50.944;5.382;2022-10-16T03:45:46;0.60;;;0.57;;
43650;SDS011;29247;50.944;5.382;2022-10-16T03:48:17;0.90;;;0.60;;
43650;SDS011;29247;50.944;5.382;2022-10-16T03:50:45;1.63;;;0.70;;
43650;SDS011;29247;50.944;5.382;2022-10-16T03:53:13;1.88;;;0.82;;
43650;SDS011;29247;50.944;5.382;2022-10-16T03:55:40;1.35;;;0.50;;
43650;SDS011;29247;50.944;5.382;2022-10-16T03:58:09;1.47;;;0.63;;
43650;SDS011;29247;50.944;5.382;2022-10-16T04:00:43;1.30;;;0.70;;
43650;SDS011;29247;50.944;5.382;2022-10-16T04:03:12;4.30;;;0.63;;
43650;SDS011;29247;50.944;5.382;2022-10-16T04:05:38;1.58;;;0.50;;
43650;SDS011;29247;50.944;5.382;2022-10-16T04:08:07;2.35;;;0.60;;
43650;SDS011;29247;50.944;5.382;2022-10-16T04:10:33;1.00;;;0.63;;
43650;SDS011;29247;50.944;5.382;2022-10-16T04:13:01;0.80;;;0.60;;
43650;SDS011;29247;50.944;5.382;2022-10-16T04:15:29;0.95;;;0.63;;
43650;SDS011;29247;50.944;5.382;2022-10-16T04:17:58;0.60;;;0.60;;
43650;SDS011;29247;50.944;5.382;2022-10-16T04:20:25;0.70;;;0.55;;
43650;SDS011;29247;50.944;5.382;2022-10-16T04:22:53;3.53;;;1.88;;
43650;SDS011;29247;50.944;5.382;2022-10-16T04:25:21;0.70;;;0.70;;
43650;SDS011;29247;50.944;5.382;2022-10-16T04:27:47;1.65;;;0.70;;
43650;SDS011;29247;50.944;5.382;2022-10-16T04:30:13;1.67;;;0.73;;
43650;SDS011;29247;50.944;5.382;2022-10-16T04:32:41;1.27;;;0.70;;
43650;SDS011;29247;50.944;5.382;2022-10-16T04:35:09;2.05;;;0.90;;
43650;SDS011;29247;50.944;5.382;2022-10-16T04:37:37;1.17;;;0.70;;
43650;SDS011;29247;50.944;5.382;2022-10-16T04:40:04;1.60;;;0.82;;
43650;SDS011;29247;50.944;5.382;2022-10-16T04:42:32;1.17;;;0.82;;
43650;SDS011;29247;50.944;5.382;2022-10-16T04:44:58;0.95;;;0.80;;
43650;SDS011;29247;50.944;5.382;2022-10-16T04:47:29;2.33;;;1.02;;
43650;SDS011;29247;50.944;5.382;2022-10-16T04:49:56;1.25;;;0.88;;
43650;SDS011;29247;50.944;5.382;2022-10-16T04:52:23;2.40;;;0.75;;
43650;SDS011;29247;50.944;5.382;2022-10-16T04:54:50;3.25;;;1.00;;
43650;SDS011;29247;50.944;5.382;2022-10-16T04:57:19;1.63;;;0.85;;
43650;SDS011;29247;50.944;5.382;2022-10-16T04:59:44;1.15;;;0.90;;
43650;SDS011;29247;50.944;5.382;2022-10-16T05:02:10;3.40;;;0.80;;
43650;SDS011;29247;50.944;5.382;2022-10-16T05:04:36;2.25;;;0.80;;
43650;SDS011;29247;50.944;5.382;2022-10-16T05:07:01;3.85;;;0.70;;
43650;SDS011;29247;50.944;5.382;2022-10-16T05:09:29;0.85;;;0.82;;
43650;SDS011;29247;50.944;5.382;2022-10-16T05:11:55;2.47;;;1.30;;
43650;SDS011;29247;50.944;5.382;2022-10-16T05:14:23;3.63;;;1.00;;
43650;SDS011;29247;50.944;5.382;2022-10-16T05:16:53;4.18;;;1.10;;
43650;SDS011;29247;50.944;5.382;2022-10-16T05:19:18;1.42;;;1.00;;
43650;SDS011;29247;50.944;5.382;2022-10-16T05:21:45;3.05;;;1.00;;
43650;SDS011;29247;50.944;5.382;2022-10-16T05:24:15;2.83;;;1.00;;
43650;SDS011;29247;50.944;5.382;2022-10-16T05:26:41;1.00;;;0.90;;
43650;SDS011;29247;50.944;5.382;2022-10-16T05:29:09;3.90;;;1.08;;
43650;SDS011;29247;50.944;5.382;2022-10-16T05:31:40;1.17;;;0.90;;
43650;SDS011;29247;50.944;5.382;2022-10-16T05:34:11;1.35;;;1.05;;
43650;SDS011;29247;50.944;5.382;2022-10-16T05:36:36;2.28;;;1.10;;
43650;SDS011;29247;50.944;5.382;2022-10-16T05:39:04;2.63;;;0.75;;
43650;SDS011;29247;50.944;5.382;2022-10-16T05:41:33;0.95;;;0.85;;
43650;SDS011;29247;50.944;5.382;2022-10-16T05:43:59;2.13;;;1.10;;
43650;SDS011;29247;50.944;5.382;2022-10-16T05:46:27;3.67;;;0.98;;
43650;SDS011;29247;50.944;5.382;2022-10-16T05:48:53;1.48;;;1.30;;
43650;SDS011;29247;50.944;5.382;2022-10-16T05:51:18;1.00;;;0.88;;
43650;SDS011;29247;50.944;5.382;2022-10-16T05:53:44;1.20;;;1.00;;
43650;SDS011;29247;50.944;5.382;2022-10-16T05:56:13;4.18;;;1.10;;
43650;SDS011;29247;50.944;5.382;2022-10-16T05:58:42;2.67;;;1.30;;
43650;SDS011;29247;50.944;5.382;2022-10-16T06:01:12;1.40;;;1.00;;
43650;SDS011;29247;50.944;5.382;2022-10-16T06:03:40;2.83;;;1.00;;
43650;SDS011;29247;50.944;5.382;2022-10-16T06:06:09;1.17;;;0.82;;
43650;SDS011;29247;50.944;5.382;2022-10-16T06:08:40;1.85;;;1.10;;
43650;SDS011;29247;50.944;5.382;2022-10-16T06:11:08;2.60;;;1.20;;
43650;SDS011;29247;50.944;5.382;2022-10-16T06:13:36;3.42;;;1.75;;
43650;SDS011;29247;50.944;5.382;2022-10-16T06:16:08;2.35;;;1.10;;
43650;SDS011;29247;50.944;5.382;2022-10-16T06:18:40;1.77;;;0.98;;
43650;SDS011;29247;50.944;5.382;2022-10-16T06:21:07;5.45;;;1.30;;
43650;SDS011;29247;50.944;5.382;2022-10-16T06:23:34;3.55;;;1.33;;
43650;SDS011;29247;50.944;5.382;2022-10-16T06:26:04;1.20;;;1.00;;
43650;SDS011;29247;50.944;5.382;2022-10-16T06:28:36;1.38;;;1.10;;
43650;SDS011;29247;50.944;5.382;2022-10-16T06:31:03;1.45;;;1.10;;
43650;SDS011;29247;50.944;5.382;2022-10-16T06:33:30;4.63;;;1.02;;
43650;SDS011;29247;50.944;5.382;2022-10-16T06:36:01;2.58;;;1.10;;
43650;SDS011;29247;50.944;5.382;2022-10-16T06:38:31;2.78;;;1.20;;
43650;SDS011;29247;50.944;5.382;2022-10-16T06:40:59;1.15;;;0.90;;
43650;SDS011;29247;50.944;5.382;2022-10-16T06:43:31;1.20;;;1.10;;
43650;SDS011;29247;50.944;5.382;2022-10-16T06:45:58;1.65;;;1.20;;
43650;SDS011;29247;50.944;5.382;2022-10-16T06:48:27;1.02;;;0.93;;
43650;SDS011;29247;50.944;5.382;2022-10-16T06:53:40;3.45;;;1.10;;
43650;SDS011;29247;50.944;5.382;2022-10-16T06:58:32;1.45;;;1.27;;
43650;SDS011;29247;50.944;5.382;2022-10-16T07:01:05;1.92;;;1.38;;
43650;SDS011;29247;50.944;5.382;2022-10-16T07:03:32;1.15;;;1.05;;
43650;SDS011;29247;50.944;5.382;2022-10-16T07:06:01;1.50;;;1.20;;
43650;SDS011;29247;50.944;5.382;2022-10-16T07:08:30;1.05;;;0.95;;
43650;SDS011;29247;50.944;5.382;2022-10-16T07:11:03;1.27;;;1.17;;
43650;SDS011;29247;50.944;5.382;2022-10-16T07:13:38;2.40;;;1.15;;
43650;SDS011;29247;50.944;5.382;2022-10-16T07:16:08;1.25;;;1.00;;
43650;SDS011;29247;50.944;5.382;2022-10-16T07:18:36;4.07;;;1.33;;
43650;SDS011;29247;50.944;5.382;2022-10-16T07:23:39;2.30;;;1.20;;
43650;SDS011;29247;50.944;5.382;2022-10-16T07:26:08;2.55;;;1.38;;
43650;SDS011;29247;50.944;5.382;2022-10-16T07:28:35;1.85;;;1.23;;
43650;SDS011;29247;50.944;5.382;2022-10-16T07:31:06;1.92;;;1.35;;
43650;SDS011;29247;50.944;5.382;2022-10-16T07:33:36;4.10;;;1.33;;
43650;SDS011;29247;50.944;5.382;2022-10-16T07:36:03;2.55;;;1.00;;
43650;SDS011;29247;50.944;5.382;2022-10-16T07:38:29;2.13;;;1.25;;
43650;SDS011;29247;50.944;5.382;2022-10-16T07:40:59;1.45;;;1.02;;
43650;SDS011;29247;50.944;5.382;2022-10-16T07:43:26;2.35;;;1.10;;
43650;SDS011;29247;50.944;5.382;2022-10-16T07:45:52;1.48;;;1.20;;
43650;SDS011;29247;50.944;5.382;2022-10-16T07:48:19;1.88;;;1.10;;
43650;SDS011;29247;50.944;5.382;2022-10-16T07:50:46;1.70;;;0.90;;
43650;SDS011;29247;50.944;5.382;2022-10-16T07:53:14;4.32;;;1.05;;
43650;SDS011;29247;50.944;5.382;2022-10-16T07:55:40;1.05;;;0.95;;
43650;SDS011;29247;50.944;5.382;2022-10-16T07:58:08;2.05;;;1.13;;
43650;SDS011;29247;50.944;5.382;2022-10-16T08:00:35;2.45;;;0.98;;
43650;SDS011;29247;50.944;5.382;2022-10-16T08:03:04;1.17;;;1.08;;
43650;SDS011;29247;50.944;5.382;2022-10-16T08:05:32;1.17;;;0.90;;
43650;SDS011;29247;50.944;5.382;2022-10-16T08:07:59;1.20;;;1.02;;
43650;SDS011;29247;50.944;5.382;2022-10-16T08:10:28;3.33;;;1.05;;
43650;SDS011;29247;50.944;5.382;2022-10-16T08:12:57;3.03;;;1.20;;
43650;SDS011;29247;50.944;5.382;2022-10-16T08:15:23;1.20;;;0.90;;
43650;SDS011;29247;50.944;5.382;2022-10-16T08:17:59;3.85;;;1.00;;
43650;SDS011;29247;50.944;5.382;2022-10-16T08:20:27;4.25;;;1.00;;
43650;SDS011;29247;50.944;5.382;2022-10-16T08:22:59;1.58;;;1.20;;
43650;SDS011;29247;50.944;5.382;2022-10-16T08:25:25;2.08;;;1.00;;
43650;SDS011;29247;50.944;5.382;2022-10-16T08:27:56;3.03;;;1.27;;
43650;SDS011;29247;50.944;5.382;2022-10-16T08:30:22;1.95;;;0.80;;
43650;SDS011;29247;50.944;5.382;2022-10-16T08:32:48;1.23;;;1.00;;
43650;SDS011;29247;50.944;5.382;2022-10-16T08:35:17;1.98;;;0.98;;
43650;SDS011;29247;50.944;5.382;2022-10-16T08:37:42;3.72;;;1.20;;
43650;SDS011;29247;50.944;5.382;2022-10-16T08:40:16;1.50;;;0.90;;
43650;SDS011;29247;50.944;5.382;2022-10-16T08:50:51;1.63;;;0.98;;
43650;SDS011;29247;50.944;5.382;2022-10-16T08:53:22;1.55;;;0.80;;
43650;SDS011;29247;50.944;5.382;2022-10-16T08:55:57;1.77;;;0.70;;
43650;SDS011;29247;50.944;5.382;2022-10-16T08:58:28;0.95;;;0.90;;
43650;SDS011;29247;50.944;5.382;2022-10-16T09:00:59;3.10;;;0.98;;
43650;SDS011;29247;50.944;5.382;2022-10-16T09:14:41;2.92;;;0.90;;
43650;SDS011;29247;50.944;5.382;2022-10-16T09:20:13;0.82;;;0.80;;
43650;SDS011;29247;50.944;5.382;2022-10-16T09:25:32;1.00;;;0.70;;
43650;SDS011;29247;50.944;5.382;2022-10-16T09:28:02;1.95;;;0.80;;
43650;SDS011;29247;50.944;5.382;2022-10-16T09:30:30;1.92;;;0.80;;
43650;SDS011;29247;50.944;5.382;2022-10-16T09:32:57;1.50;;;0.77;;
43650;SDS011;29247;50.944;5.382;2022-10-16T09:35:31;1.15;;;0.68;;
43650;SDS011;29247;50.944;5.382;2022-10-16T09:38:04;1.95;;;0.88;;
43650;SDS011;29247;50.944;5.382;2022-10-16T09:40:37;1.58;;;0.70;;
43650;SDS011;29247;50.944;5.382;2022-10-16T09:45:56;2.90;;;0.60;;
43650;SDS011;29247;50.944;5.382;2022-10-16T09:48:43;2.60;;;0.70;;
43650;SDS011;29247;50.944;5.382;2022-10-16T09:51:19;1.77;;;0.80;;
43650;SDS011;29247;50.944;5.382;2022-10-16T09:53:54;1.60;;;0.90;;
43650;SDS011;29247;50.944;5.382;2022-10-16T09:56:25;1.33;;;0.60;;
43650;SDS011;29247;50.944;5.382;2022-10-16T09:58:55;0.98;;;0.80;;
43650;SDS011;29247;50.944;5.382;2022-10-16T10:01:24;1.48;;;0.80;;
43650;SDS011;29247;50.944;5.382;2022-10-16T10:04:03;2.47;;;0.70;;
43650;SDS011;29247;50.944;5.382;2022-10-16T10:07:03;3.35;;;0.93;;
43650;SDS011;29247;50.944;5.382;2022-10-16T10:11:49;0.95;;;0.70;;
43650;SDS011;29247;50.944;5.382;2022-10-16T10:14:20;2.55;;;0.80;;
43650;SDS011;29247;50.944;5.382;2022-10-16T10:16:53;2.50;;;0.70;;
43650;SDS011;29247;50.944;5.382;2022-10-16T10:19:29;2.25;;;0.80;;
43650;SDS011;29247;50.944;5.382;2022-10-16T10:22:10;1.70;;;0.73;;
43650;SDS011;29247;50.944;5.382;2022-10-16T10:27:39;2.28;;;0.60;;
43650;SDS011;29247;50.944;5.382;2022-10-16T10:38:49;3.17;;;0.70;;
43650;SDS011;29247;50.944;5.382;2022-10-16T10:46:43;0.80;;;0.57;;
43650;SDS011;29247;50.944;5.382;2022-10-16T10:49:35;1.52;;;0.57;;
43650;SDS011;29247;50.944;5.382;2022-10-16T10:54:42;1.40;;;0.60;;
43650;SDS011;29247;50.944;5.382;2022-10-16T10:57:32;2.42;;;0.77;;
43650;SDS011;29247;50.944;5.382;2022-10-16T11:05:49;4.53;;;0.88;;
43650;SDS011;29247;50.944;5.382;2022-10-16T11:08:32;2.35;;;0.70;;
43650;SDS011;29247;50.944;5.382;2022-10-16T11:11:30;1.63;;;0.70;;
43650;SDS011;29247;50.944;5.382;2022-10-16T11:16:37;1.02;;;0.60;;
43650;SDS011;29247;50.944;5.382;2022-10-16T11:22:06;0.80;;;0.57;;
43650;SDS011;29247;50.944;5.382;2022-10-16T11:24:36;0.93;;;0.73;;
43650;SDS011;29247;50.944;5.382;2022-10-16T11:30:29;2.92;;;0.75;;
43650;SDS011;29247;50.944;5.382;2022-10-16T11:38:43;1.85;;;0.60;;
43650;SDS011;29247;50.944;5.382;2022-10-16T11:49:47;0.60;;;0.60;;
43650;SDS011;29247;50.944;5.382;2022-10-16T11:52:25;2.78;;;0.75;;
43650;SDS011;29247;50.944;5.382;2022-10-16T11:57:51;1.40;;;0.60;;
43650;SDS011;29247;50.944;5.382;2022-10-16T12:00:26;3.10;;;0.80;;
43650;SDS011;29247;50.944;5.382;2022-10-16T12:02:57;1.08;;;0.70;;
43650;SDS011;29247;50.944;5.382;2022-10-16T12:05:35;2.97;;;0.90;;
43650;SDS011;29247;50.944;5.382;2022-10-16T12:08:11;2.05;;;0.70;;
43650;SDS011;29247;50.944;5.382;2022-10-16T12:10:41;2.17;;;0.70;;
43650;SDS011;29247;50.944;5.382;2022-10-16T12:13:28;2.60;;;0.60;;
43650;SDS011;29247;50.944;5.382;2022-10-16T12:18:37;2.38;;;0.68;;
43650;SDS011;29247;50.944;5.382;2022-10-16T12:21:04;3.08;;;0.77;;
43650;SDS011;29247;50.944;5.382;2022-10-16T12:23:37;3.53;;;0.60;;
43650;SDS011;29247;50.944;5.382;2022-10-16T12:26:14;2.35;;;0.80;;
43650;SDS011;29247;50.944;5.382;2022-10-16T12:28:53;0.93;;;0.60;;
43650;SDS011;29247;50.944;5.382;2022-10-16T12:31:36;1.95;;;0.80;;
43650;SDS011;29247;50.944;5.382;2022-10-16T12:34:14;1.15;;;0.65;;
43650;SDS011;29247;50.944;5.382;2022-10-16T12:37:23;1.05;;;0.82;;
43650;SDS011;29247;50.944;5.382;2022-10-16T12:39:51;1.52;;;0.70;;
43650;SDS011;29247;50.944;5.382;2022-10-16T12:44:52;1.20;;;0.60;;
43650;SDS011;29247;50.944;5.382;2022-10-16T12:49:52;1.48;;;0.50;;
43650;SDS011;29247;50.944;5.382;2022-10-16T12:52:28;2.63;;;0.63;;
43650;SDS011;29247;50.944;5.382;2022-10-16T12:55:03;1.10;;;0.75;;
43650;SDS011;29247;50.944;5.382;2022-10-16T13:29:36;1.67;;;0.52;;
43650;SDS011;29247;50.944;5.382;2022-10-16T13:32:10;1.38;;;0.57;;
43650;SDS011;29247;50.944;5.382;2022-10-16T13:34:44;0.50;;;0.50;;
43650;SDS011;29247;50.944;5.382;2022-10-16T13:37:20;1.90;;;0.60;;
43650;SDS011;29247;50.944;5.382;2022-10-16T13:39:47;1.13;;;0.65;;
43650;SDS011;29247;50.944;5.382;2022-10-16T13:44:55;6.22;;;1.10;;
43650;SDS011;29247;50.944;5.382;2022-10-16T13:49:59;0.85;;;0.60;;
43650;SDS011;29247;50.944;5.382;2022-10-16T13:52:40;0.93;;;0.50;;
43650;SDS011;29247;50.944;5.382;2022-10-16T13:55:15;0.47;;;0.47;;
43650;SDS011;29247;50.944;5.382;2022-10-16T13:57:43;1.42;;;0.60;;
43650;SDS011;29247;50.944;5.382;2022-10-16T14:00:20;0.77;;;0.45;;
43650;SDS011;29247;50.944;5.382;2022-10-16T14:02:53;0.60;;;0.60;;
43650;SDS011;29247;50.944;5.382;2022-10-16T14:05:23;1.85;;;0.60;;
43650;SDS011;29247;50.944;5.382;2022-10-16T14:07:52;0.73;;;0.57;;
43650;SDS011;29247;50.944;5.382;2022-10-16T14:12:55;0.80;;;0.63;;
43650;SDS011;29247;50.944;5.382;2022-10-16T14:15:30;0.65;;;0.50;;
43650;SDS011;29247;50.944;5.382;2022-10-16T14:17:57;0.70;;;0.60;;
43650;SDS011;29247;50.944;5.382;2022-10-16T14:20:30;1.65;;;0.60;;
43650;SDS011;29247;50.944;5.382;2022-10-16T14:25:43;1.02;;;0.52;;
43650;SDS011;29247;50.944;5.382;2022-10-16T14:30:50;0.75;;;0.60;;
43650;SDS011;29247;50.944;5.382;2022-10-16T14:36:02;0.52;;;0.50;;
43650;SDS011;29247;50.944;5.382;2022-10-16T14:38:40;1.65;;;0.60;;
43650;SDS011;29247;50.944;5.382;2022-10-16T14:41:10;0.82;;;0.45;;
43650;SDS011;29247;50.944;5.382;2022-10-16T14:43:41;1.85;;;0.60;;
43650;SDS011;29247;50.944;5.382;2022-10-16T14:46:14;0.60;;;0.60;;
43650;SDS011;29247;50.944;5.382;2022-10-16T14:48:45;2.10;;;0.63;;
43650;SDS011;29247;50.944;5.382;2022-10-16T14:51:16;1.70;;;0.70;;
43650;SDS011;29247;50.944;5.382;2022-10-16T14:53:43;2.38;;;0.60;;
43650;SDS011;29247;50.944;5.382;2022-10-16T14:56:14;1.15;;;0.60;;
43650;SDS011;29247;50.944;5.382;2022-10-16T14:58:48;1.75;;;0.55;;
43650;SDS011;29247;50.944;5.382;2022-10-16T15:01:15;1.13;;;0.60;;
43650;SDS011;29247;50.944;5.382;2022-10-16T15:03:43;0.50;;;0.50;;
43650;SDS011;29247;50.944;5.382;2022-10-16T15:06:10;1.13;;;0.60;;
43650;SDS011;29247;50.944;5.382;2022-10-16T15:08:39;1.33;;;0.60;;
43650;SDS011;29247;50.944;5.382;2022-10-16T15:11:11;0.80;;;0.57;;
43650;SDS011;29247;50.944;5.382;2022-10-16T15:13:39;1.92;;;0.52;;
43650;SDS011;29247;50.944;5.382;2022-10-16T15:16:04;1.80;;;0.57;;
43650;SDS011;29247;50.944;5.382;2022-10-16T15:18:33;0.85;;;0.60;;
43650;SDS011;29247;50.944;5.382;2022-10-16T15:21:02;0.70;;;0.70;;
43650;SDS011;29247;50.944;5.382;2022-10-16T15:23:27;2.47;;;0.50;;
43650;SDS011;29247;50.944;5.382;2022-10-16T15:25:56;0.60;;;0.60;;
43650;SDS011;29247;50.944;5.382;2022-10-16T15:28:22;1.35;;;0.70;;
43650;SDS011;29247;50.944;5.382;2022-10-16T15:30:52;0.80;;;0.60;;
43650;SDS011;29247;50.944;5.382;2022-10-16T15:33:23;1.58;;;0.70;;
43650;SDS011;29247;50.944;5.382;2022-10-16T15:35:57;3.10;;;0.75;;
43650;SDS011;29247;50.944;5.382;2022-10-16T15:38:23;2.28;;;0.60;;
43650;SDS011;29247;50.944;5.382;2022-10-16T15:40:51;0.70;;;0.70;;
43650;SDS011;29247;50.944;5.382;2022-10-16T15:43:16;1.13;;;0.70;;
43650;SDS011;29247;50.944;5.382;2022-10-16T15:45:43;2.10;;;0.70;;
43650;SDS011;29247;50.944;5.382;2022-10-16T15:48:12;1.83;;;0.80;;
43650;SDS011;29247;50.944;5.382;2022-10-16T15:50:39;3.53;;;0.75;;
43650;SDS011;29247;50.944;5.382;2022-10-16T15:53:07;1.90;;;0.93;;
43650;SDS011;29247;50.944;5.382;2022-10-16T15:55:35;3.13;;;0.77;;
43650;SDS011;29247;50.944;5.382;2022-10-16T15:58:02;1.23;;;0.90;;
43650;SDS011;29247;50.944;5.382;2022-10-16T16:00:29;1.00;;;0.70;;
43650;SDS011;29247;50.944;5.382;2022-10-16T16:02:57;2.63;;;0.70;;
43650;SDS011;29247;50.944;5.382;2022-10-16T16:05:24;1.67;;;0.50;;
43650;SDS011;29247;50.944;5.382;2022-10-16T16:07:54;5.57;;;0.60;;
43650;SDS011;29247;50.944;5.382;2022-10-16T16:10:24;3.70;;;0.80;;
43650;SDS011;29247;50.944;5.382;2022-10-16T16:12:52;1.40;;;0.70;;
43650;SDS011;29247;50.944;5.382;2022-10-16T16:15:19;1.10;;;0.93;;
43650;SDS011;29247;50.944;5.382;2022-10-16T16:17:53;2.22;;;0.93;;
43650;SDS011;29247;50.944;5.382;2022-10-16T16:20:18;8.23;;;0.98;;
43650;SDS011;29247;50.944;5.382;2022-10-16T16:22:47;2.47;;;0.93;;
43650;SDS011;29247;50.944;5.382;2022-10-16T16:25:13;2.60;;;0.90;;
43650;SDS011;29247;50.944;5.382;2022-10-16T16:27:41;2.80;;;0.90;;
43650;SDS011;29247;50.944;5.382;2022-10-16T16:30:10;2.40;;;0.68;;
43650;SDS011;29247;50.944;5.382;2022-10-16T16:32:36;0.85;;;0.60;;
43650;SDS011;29247;50.944;5.382;2022-10-16T16:35:03;1.75;;;0.73;;
43650;SDS011;29247;50.944;5.382;2022-10-16T16:37:32;1.80;;;0.95;;
43650;SDS011;29247;50.944;5.382;2022-10-16T16:39:57;3.10;;;1.00;;
43650;SDS011;29247;50.944;5.382;2022-10-16T16:42:24;1.45;;;0.88;;
43650;SDS011;29247;50.944;5.382;2022-10-16T16:44:53;2.63;;;1.02;;
43650;SDS011;29247;50.944;5.382;2022-10-16T16:47:19;2.28;;;1.00;;
43650;SDS011;29247;50.944;5.382;2022-10-16T16:49:45;2.50;;;1.40;;
43650;SDS011;29247;50.944;5.382;2022-10-16T16:52:14;2.72;;;0.90;;
43650;SDS011;29247;50.944;5.382;2022-10-16T16:54:41;5.30;;;1.30;;
43650;SDS011;29247;50.944;5.382;2022-10-16T16:57:16;3.78;;;1.38;;
43650;SDS011;29247;50.944;5.382;2022-10-16T16:59:44;3.78;;;1.42;;
43650;SDS011;29247;50.944;5.382;2022-10-16T17:02:10;4.13;;;1.75;;
43650;SDS011;29247;50.944;5.382;2022-10-16T17:04:36;2.72;;;1.60;;
43650;SDS011;29247;50.944;5.382;2022-10-16T17:07:01;5.85;;;1.98;;
43650;SDS011;29247;50.944;5.382;2022-10-16T17:09:27;3.58;;;1.65;;
43650;SDS011;29247;50.944;5.382;2022-10-16T17:11:53;3.55;;;1.80;;
43650;SDS011;29247;50.944;5.382;2022-10-16T17:14:21;5.55;;;2.22;;
43650;SDS011;29247;50.944;5.382;2022-10-16T17:16:47;3.47;;;1.65;;
43650;SDS011;29247;50.944;5.382;2022-10-16T17:19:15;2.42;;;1.90;;
43650;SDS011;29247;50.944;5.382;2022-10-16T17:21:42;7.78;;;2.13;;
43650;SDS011;29247;50.944;5.382;2022-10-16T17:24:11;3.80;;;2.23;;
43650;SDS011;29247;50.944;5.382;2022-10-16T17:26:43;5.30;;;2.30;;
43650;SDS011;29247;50.944;5.382;2022-10-16T17:29:13;6.18;;;2.13;;
43650;SDS011;29247;50.944;5.382;2022-10-16T17:31:40;3.85;;;2.20;;
43650;SDS011;29247;50.944;5.382;2022-10-16T17:34:07;2.63;;;1.80;;
43650;SDS011;29247;50.944;5.382;2022-10-16T17:36:37;2.80;;;1.98;;
43650;SDS011;29247;50.944;5.382;2022-10-16T17:39:09;4.50;;;2.42;;
43650;SDS011;29247;50.944;5.382;2022-10-16T17:41:39;5.82;;;2.75;;
43650;SDS011;29247;50.944;5.382;2022-10-16T17:44:05;3.83;;;2.13;;
43650;SDS011;29247;50.944;5.382;2022-10-16T17:46:32;3.83;;;1.85;;
43650;SDS011;29247;50.944;5.382;2022-10-16T17:49:02;3.08;;;1.80;;
43650;SDS011;29247;50.944;5.382;2022-10-16T17:51:31;6.57;;;1.77;;
43650;SDS011;29247;50.944;5.382;2022-10-16T17:54:00;2.97;;;1.63;;
43650;SDS011;29247;50.944;5.382;2022-10-16T17:56:27;5.57;;;2.00;;